createdAt,value
2022-12-17T00:04:14.781Z,1017.28
2022-12-17T00:09:21.921Z,1017.35
2022-12-17T00:14:29.131Z,1017.36
2022-12-17T00:19:36.346Z,1017.38
2022-12-17T00:24:43.682Z,1017.44
2022-12-17T00:29:50.774Z,1017.50
2022-12-17T00:34:57.926Z,1017.60
2022-12-17T00:40:05.144Z,1017.63
2022-12-17T00:45:12.369Z,1017.71
2022-12-17T00:50:19.596Z,1017.76
2022-12-17T00:55:26.810Z,1017.88
2022-12-17T01:00:34.083Z,1017.98
2022-12-17T01:05:41.268Z,1018.06
2022-12-17T01:10:48.478Z,1018.10
2022-12-17T01:15:56.647Z,1018.18
2022-12-17T01:21:02.860Z,1018.22
2022-12-17T01:26:10.110Z,1018.33
2022-12-17T01:31:17.586Z,1018.39
2022-12-17T01:36:24.654Z,1018.46
2022-12-17T01:41:31.903Z,1018.51
2022-12-17T01:46:39.078Z,1018.53
2022-12-17T01:51:46.321Z,1018.55
2022-12-17T01:56:53.632Z,1018.61
2022-12-17T02:02:01.058Z,1018.68
2022-12-17T02:07:08.078Z,1018.72
2022-12-17T02:12:15.263Z,1018.70
2022-12-17T02:17:22.431Z,1018.72
2022-12-17T02:22:29.650Z,1018.74
2022-12-17T02:27:36.862Z,1018.77
2022-12-17T02:32:44.324Z,1018.72
2022-12-17T02:37:51.562Z,1018.74
2022-12-17T02:42:58.875Z,1018.73
2022-12-17T02:48:05.910Z,1018.77
2022-12-17T02:53:13.201Z,1018.76
2022-12-17T02:58:20.400Z,1018.81
2022-12-17T03:03:27.741Z,1018.89
2022-12-17T03:08:34.765Z,1018.93
2022-12-17T03:13:42.017Z,1018.96
2022-12-17T03:18:49.177Z,1018.99
2022-12-17T03:23:56.461Z,1019.05
2022-12-17T03:29:03.657Z,1019.10
2022-12-17T03:34:10.783Z,1019.08
2022-12-17T03:39:17.981Z,1019.10
2022-12-17T03:44:25.235Z,1019.09
2022-12-17T03:49:32.394Z,1019.11
2022-12-17T03:54:39.603Z,1019.11
2022-12-17T03:59:46.835Z,1019.16
2022-12-17T04:04:54.019Z,1019.23
2022-12-17T04:10:01.240Z,1019.26
2022-12-17T04:15:08.441Z,1019.31
2022-12-17T04:20:15.624Z,1019.35
2022-12-17T04:25:22.833Z,1019.40
2022-12-17T04:30:30.057Z,1019.41
2022-12-17T04:35:37.241Z,1019.47
2022-12-17T04:40:44.426Z,1019.59
2022-12-17T04:45:51.769Z,1019.65
2022-12-17T04:50:58.862Z,1019.75
2022-12-17T04:56:06.019Z,1019.80
2022-12-17T05:01:13.445Z,1019.90
2022-12-17T05:06:20.471Z,1019.90
2022-12-17T05:11:27.694Z,1019.87
2022-12-17T05:16:34.876Z,1019.91
2022-12-17T05:21:42.098Z,1019.98
2022-12-17T05:26:49.298Z,1020.01
2022-12-17T05:31:56.567Z,1020.03
2022-12-17T05:37:03.724Z,1020.08
2022-12-17T05:42:10.912Z,1020.15
2022-12-17T05:47:18.144Z,1020.14
2022-12-17T05:52:25.325Z,1020.18
2022-12-17T05:57:32.510Z,1020.22
2022-12-17T06:02:39.886Z,1020.27
2022-12-17T06:07:46.919Z,1020.35
2022-12-17T06:12:54.137Z,1020.35
2022-12-17T06:18:01.380Z,1020.43
2022-12-17T06:23:08.546Z,1020.48
2022-12-17T06:28:15.767Z,1020.54
2022-12-17T06:33:22.980Z,1020.58
2022-12-17T06:38:30.178Z,1020.63
2022-12-17T06:43:37.658Z,1020.64
2022-12-17T06:48:44.596Z,1020.67
2022-12-17T06:53:51.758Z,1020.77
2022-12-17T06:58:58.965Z,1020.84
2022-12-17T07:04:06.213Z,1020.92
2022-12-17T07:09:13.383Z,1020.95
2022-12-17T07:14:20.580Z,1020.98
2022-12-17T07:19:27.931Z,1020.97
2022-12-17T07:24:34.971Z,1021.00
2022-12-17T07:29:42.202Z,1021.13
2022-12-17T07:34:49.378Z,1021.17
2022-12-17T07:39:56.597Z,1021.24
2022-12-17T07:45:03.805Z,1021.29
2022-12-17T07:50:11.055Z,1021.37
2022-12-17T07:55:18.559Z,1021.38
2022-12-17T08:00:25.507Z,1021.43
2022-12-17T08:05:32.650Z,1021.49
2022-12-17T08:10:39.861Z,1021.63
2022-12-17T08:15:47.056Z,1021.72
2022-12-17T08:20:54.259Z,1021.79
2022-12-17T08:26:01.450Z,1021.82
2022-12-17T08:31:08.732Z,1021.85
2022-12-17T08:36:15.845Z,1021.86
2022-12-17T08:41:23.061Z,1021.96
2022-12-17T08:46:30.309Z,1022.05
2022-12-17T08:51:37.528Z,1022.08
2022-12-17T08:56:44.658Z,1022.05
2022-12-17T09:01:52.011Z,1022.15
2022-12-17T09:06:59.077Z,1022.25
2022-12-17T09:12:06.234Z,1022.28
2022-12-17T09:17:13.488Z,1022.35
2022-12-17T09:22:20.749Z,1022.46
2022-12-17T09:27:28.009Z,1022.55
2022-12-17T09:32:35.195Z,1022.56
2022-12-17T09:37:42.463Z,1022.62
2022-12-17T09:42:52.495Z,1022.66
2022-12-17T09:47:56.852Z,1022.70
2022-12-17T09:53:04.063Z,1022.77
2022-12-17T09:58:11.260Z,1022.74
2022-12-17T10:03:18.513Z,1022.74
2022-12-17T10:08:25.735Z,1022.69
2022-12-17T10:13:33.042Z,1022.64
2022-12-17T10:18:40.116Z,1022.54
2022-12-17T10:23:47.323Z,1022.58
2022-12-17T10:28:54.537Z,1022.54
2022-12-17T10:34:01.768Z,1022.52
2022-12-17T10:39:09.012Z,1022.45
2022-12-17T10:44:16.234Z,1022.51
2022-12-17T10:49:23.386Z,1022.49
2022-12-17T10:54:30.567Z,1022.54
2022-12-17T10:59:37.697Z,1022.59
2022-12-17T11:04:44.872Z,1022.50
2022-12-17T11:09:52.124Z,1022.50
2022-12-17T11:14:59.311Z,1022.46
2022-12-17T11:20:06.534Z,1022.49
2022-12-17T11:25:13.756Z,1022.47
2022-12-17T11:30:23.159Z,1022.46
2022-12-17T11:35:28.125Z,1022.48
2022-12-17T11:40:35.496Z,1022.49
2022-12-17T11:45:42.530Z,1022.44
2022-12-17T11:50:49.737Z,1022.39
2022-12-17T11:55:56.950Z,1022.41
2022-12-17T12:01:04.118Z,1022.46
2022-12-17T12:06:11.318Z,1022.56
2022-12-17T12:11:18.608Z,1022.51
2022-12-17T12:16:25.977Z,1022.56
2022-12-17T12:21:33.069Z,1022.52
2022-12-17T12:26:40.295Z,1022.62
2022-12-17T12:31:47.618Z,1022.60
2022-12-17T12:36:54.739Z,1022.59
2022-12-17T12:42:01.922Z,1022.55
2022-12-17T12:47:09.116Z,1022.52
2022-12-17T12:52:16.355Z,1022.51
2022-12-17T12:57:23.611Z,1022.54
2022-12-17T13:02:30.969Z,1022.55
2022-12-17T13:07:38.025Z,1022.58
2022-12-17T13:12:45.259Z,1022.55
2022-12-17T13:17:52.435Z,1022.59
2022-12-17T13:22:59.647Z,1022.55
2022-12-17T13:28:06.912Z,1022.61
2022-12-17T13:33:14.056Z,1022.71
2022-12-17T13:38:21.288Z,1022.73
2022-12-17T13:43:28.467Z,1022.84
2022-12-17T13:48:36.079Z,1022.90
2022-12-17T13:53:42.867Z,1022.93
2022-12-17T13:58:51.242Z,1022.93
2022-12-17T14:04:06.312Z,1022.94
2022-12-17T14:09:04.562Z,1022.93
2022-12-17T14:14:11.840Z,1023.03
2022-12-17T14:19:18.994Z,1023.01
2022-12-17T14:24:26.194Z,1023.09
2022-12-17T14:29:33.437Z,1023.19
2022-12-17T14:34:40.620Z,1023.25
2022-12-17T14:39:47.827Z,1023.38
2022-12-17T14:44:55.043Z,1023.41
2022-12-17T14:50:02.331Z,1023.38
2022-12-17T14:55:09.549Z,1023.35
2022-12-17T15:00:16.818Z,1023.27
2022-12-17T15:05:23.947Z,1023.24
2022-12-17T15:10:31.172Z,1023.26
2022-12-17T15:15:38.379Z,1023.31
2022-12-17T15:20:45.554Z,1023.43
2022-12-17T15:25:52.972Z,1023.42
2022-12-17T15:31:00.421Z,1023.45
2022-12-17T15:36:08.550Z,1023.53
2022-12-17T15:41:16.007Z,1023.45
2022-12-17T15:46:23.701Z,1023.50
2022-12-17T15:51:31.232Z,1023.52
2022-12-17T15:56:38.551Z,1023.49
2022-12-17T16:01:45.880Z,1023.59
2022-12-17T16:06:53.184Z,1023.64
2022-12-17T16:12:00.766Z,1023.62
2022-12-17T16:17:08.518Z,1023.64
2022-12-17T16:22:15.936Z,1023.66
2022-12-17T16:27:23.194Z,1023.66
2022-12-17T16:32:36.142Z,1023.67
2022-12-17T16:37:37.635Z,1023.65
2022-12-17T16:42:44.806Z,1023.66
2022-12-17T16:47:52.138Z,1023.73
2022-12-17T16:52:59.530Z,1023.69
2022-12-17T16:58:07.149Z,1023.74
2022-12-17T17:03:15.027Z,1023.77
2022-12-17T17:08:22.092Z,1023.72
2022-12-17T17:13:29.266Z,1023.73
2022-12-17T17:18:36.513Z,1023.81
2022-12-17T17:23:43.775Z,1023.85
2022-12-17T17:28:50.990Z,1023.87
2022-12-17T17:33:58.236Z,1023.94
2022-12-17T17:39:05.363Z,1023.98
2022-12-17T17:44:12.601Z,1023.99
2022-12-17T17:49:19.792Z,1024.04
2022-12-17T17:54:27.033Z,1024.01
2022-12-17T17:59:34.641Z,1024.13
2022-12-17T18:04:41.484Z,1024.15
2022-12-17T18:09:48.669Z,1024.23
2022-12-17T18:15:14.879Z,1024.18
2022-12-17T18:20:03.213Z,1024.24
2022-12-17T18:25:10.353Z,1024.31
2022-12-17T18:30:17.878Z,1024.33
2022-12-17T18:35:25.110Z,1024.39
2022-12-17T18:40:33.626Z,1024.33
2022-12-17T18:45:39.677Z,1024.34
2022-12-17T18:50:47.079Z,1024.33
2022-12-17T18:55:54.312Z,1024.46
2022-12-17T19:01:01.613Z,1024.39
2022-12-17T19:06:09.261Z,1024.47
2022-12-17T19:11:16.783Z,1024.49
2022-12-17T19:16:24.033Z,1024.54
2022-12-17T19:21:31.187Z,1024.61
2022-12-17T19:26:38.647Z,1024.56
2022-12-17T19:31:46.234Z,1024.67
2022-12-17T19:36:53.404Z,1024.62
2022-12-17T19:42:00.585Z,1024.58
2022-12-17T19:47:07.857Z,1024.61
2022-12-17T19:52:15.409Z,1024.69
2022-12-17T19:57:23.005Z,1024.69
2022-12-17T20:02:33.089Z,1024.79
2022-12-17T20:07:37.847Z,1024.82
2022-12-17T20:12:45.436Z,1024.84
2022-12-17T20:17:52.951Z,1024.94
2022-12-17T20:23:00.367Z,1024.93
2022-12-17T20:28:07.548Z,1024.99
2022-12-17T20:33:14.795Z,1025.03
2022-12-17T20:38:22.014Z,1024.97
2022-12-17T20:43:29.148Z,1025.03
2022-12-17T20:48:36.792Z,1024.99
2022-12-17T20:53:43.920Z,1025.00
2022-12-17T20:58:51.302Z,1024.92
2022-12-17T21:03:58.722Z,1024.98
2022-12-17T21:09:06.456Z,1025.12
2022-12-17T21:14:13.637Z,1025.10
2022-12-17T21:19:20.841Z,1025.12
2022-12-17T21:24:28.293Z,1025.24
2022-12-17T21:29:35.581Z,1025.20
2022-12-17T21:34:42.787Z,1025.19
2022-12-17T21:39:51.943Z,1025.23
2022-12-17T21:44:57.190Z,1025.18
2022-12-17T21:50:04.483Z,1025.15
2022-12-17T21:55:11.738Z,1025.19
2022-12-17T22:00:18.896Z,1025.23
2022-12-17T22:05:26.104Z,1025.26
2022-12-17T22:10:44.290Z,1025.16
2022-12-17T22:15:48.052Z,1025.18
2022-12-17T22:20:47.943Z,1025.23
2022-12-17T22:25:55.135Z,1025.28
2022-12-17T22:31:02.363Z,1025.31
2022-12-17T22:37:53.714Z,1025.32
2022-12-17T22:44:35.587Z,1025.37
2022-12-17T22:46:24.143Z,1025.44
2022-12-17T22:51:31.895Z,1025.42
2022-12-17T22:56:54.127Z,1025.45
2022-12-17T23:01:45.774Z,1025.53
2022-12-17T23:06:52.906Z,1025.54
2022-12-17T23:12:00.102Z,1025.45
2022-12-17T23:17:07.323Z,1025.43
2022-12-17T23:22:18.916Z,1025.47
2022-12-17T23:27:21.963Z,1025.47
2022-12-17T23:32:29.192Z,1025.39
2022-12-17T23:37:39.752Z,1025.34
2022-12-17T23:42:43.635Z,1025.28
2022-12-17T23:47:50.829Z,1025.29
2022-12-17T23:52:58.013Z,1025.33
2022-12-17T23:58:05.228Z,1025.42
